Main page
METAR-TAF:

METAR-TAF

Airports :

Kavala International Airport

Kavala, Greece

latitude: 40-59N, longitude: 024-36E, elevation: 5 m

Current weather observation

The report was made 6 hours and 26 minutes ago, at 18:50 UTC
Wind 3 kt from variable directions
Temperature 8°C
Humidity 76%
Pressure 1024 hPa
Visibility 10 km or more
Few clouds at a height of 3000 ft

METAR: LGKV 101850Z VRB03KT 9999 FEW030 08/04 Q1024

Time: 04:16 (01:16 UTC)

Forecast

The report was made 2 hours and 16 minutes ago, at 23:00 UTC
Forecast valid from 11 at 00 UTC to 11 at 24 UTC
Wind 3 kt from variable directions
Visibility 10 km or more
Few clouds at a height of 3000 ft
Becoming
from 11 at 09 UTC to 11 at 11 UTC
Scattered clouds at a height of 2500 ft
Scattered clouds at a height of 8000 ft
Becoming
from 11 at 18 UTC to 11 at 20 UTC
Few clouds at a height of 3000 ft

TAF: LGKV 102300Z 1100/1124 VRB03KT 9999 FEW030 BECMG 1109/1111 SCT025 SCT080 BECMG 1118/1120 FEW030

Weather observations and forecasts of more than 4000 airports (METAR and TAF reports).

The available stations are represented by yellow and red dots on the map.

Hover mouse over dot to see the name of the station.

Then click to see weather observations and forecasts.

To change the map : click on the green buttons with a black cross to zoom in, on the green button with a dash to zoom out, or on the green arrows for adjacent maps.


METAR-TAF: